首页
METAR-TAF:

METAR-TAF

机场 :

鲍里斯波尔国际机场

鮑里斯皮爾, 乌克兰

纬度: 50-20N, 经度: 030-58E, 海拔: 121米

当前天气观测

该预报发布于24分钟前的20:30 UTC
风速4节,风向东转东北
温度 4°C
湿度 65%
气压 1021 hPa
能见度10公里或以上
1500米以下无云,无积雨云

METAR: UKBB 232030Z 06002MPS CAVOK 04/M02 Q1021 R88/D NOSIG

时间: 23:54 (20:54 UTC)

预报

该预报发布于3小时和54分钟前的17:00 UTC
预报有效从23日的 18点(UTC)到 24日的 18点(UTC)
风速6节,风向东北
能见度10公里或以上
散云层高于2000英尺
短暂存在
从 23日的 22点(UTC)到 24日的 04点(UTC)
能見度: 1000
多云层高于400英尺
轻雾
成为
从 24日的 04点(UTC)到 24日的 06点(UTC)
风速6节,风向,有时为16节阵风

TAF: UKBB 231700Z 2318/2418 05003MPS 9999 SCT020 TX14/2412Z TNM02/2403Z TEMPO 2322/2404 1000 BR BKN004 BECMG 2404/2406 08003G08MPS

超过4000个机场的气象观测和天气预报(METAR&TAF报告)。

可查询的气象台以黄色和红色小点在地图上表示。

将鼠标移到小点上方,可查看气象台名称。

然后点击查看天气观测和预报。

如需切换地图:点击带黑十字的绿色按钮放大地图;点击带横线的绿色按钮缩小地图;或者点击绿色箭头查看邻近地区的地图。


METAR-TAF: